Time;durP1;ratioP1;P1;durP2;ratioP2;P2;SDS_P1;SDS_P2;PMS_P1;PMS_P2;Temp;Humidity;BMP_temperature;BMP_pressure;BME280_temperature;BME280_humidity;BME280_pressure;Samples;Min_cycle;Max_cycle;Signal;HPM_P1;HPM_P2
2023/04/29 00:01:57;;;;;;;8.85;2.78;;;;;;;18.69;76.99;98516.53;5095587;28;20027;-44
2023/04/29 00:04:24;;;;;;;13.85;2.83;;;;;;;18.93;76.51;98520.44;5095514;28;20482;-45
2023/04/29 00:06:50;;;;;;;6.93;3.10;;;;;;;19.19;76.24;98514.41;5094148;28;20065;-45
2023/04/29 00:09:16;;;;;;;220.23;199.70;;;;;;;19.41;74.60;98511.53;5094214;28;20024;-45
2023/04/29 00:11:42;;;;;;;49.95;36.95;;;;;;;19.56;73.43;98503.59;5094411;28;20058;-45
2023/04/29 00:14:07;;;;;;;36.80;14.02;;;;;;;19.69;74.71;98496.97;5095432;28;20406;-45
2023/04/29 00:16:33;;;;;;;7.65;3.13;;;;;;;20.03;73.62;98494.63;5094055;28;20020;-45
2023/04/29 00:18:59;;;;;;;15.27;6.25;;;;;;;20.24;71.53;98503.41;5095343;28;20543;-45
2023/04/29 00:21:26;;;;;;;13.05;3.10;;;;;;;20.39;68.84;98499.91;5095247;28;20602;-45
2023/04/29 00:23:52;;;;;;;16.60;4.32;;;;;;;20.28;68.31;98488.47;5077237;28;20047;-45
2023/04/29 00:26:18;;;;;;;17.58;3.55;;;;;;;20.15;69.38;98481.81;5093474;28;20563;-45
2023/04/29 00:28:44;;;;;;;6.07;2.92;;;;;;;20.03;68.07;98475.16;5095125;28;20099;-45
2023/04/29 00:31:10;;;;;;;9.10;3.65;;;;;;;20.00;69.26;98481.03;5093756;28;20095;-44
2023/04/29 00:33:35;;;;;;;9.18;3.63;;;;;;;19.95;69.91;98485.28;5093901;28;20024;-44
2023/04/29 00:36:02;;;;;;;9.20;2.67;;;;;;;19.81;70.38;98470.91;5094992;28;20406;-44
2023/04/29 00:38:28;;;;;;;7.63;2.50;;;;;;;19.67;70.53;98473.25;5094987;28;20024;-44
2023/04/29 00:40:55;;;;;;;10.07;3.00;;;;;;;19.52;71.71;98475.91;5094859;28;20103;-44
2023/04/29 00:43:21;;;;;;;9.27;3.08;;;;;;;19.56;72.89;98479.66;5094794;28;20482;-44
2023/04/29 00:45:47;;;;;;;7.70;3.15;;;;;;;19.55;72.01;98470.03;5094771;28;20035;-44
2023/04/29 00:48:14;;;;;;;11.00;3.28;;;;;;;19.35;71.26;98460.97;5094688;28;20020;-44
2023/04/29 00:50:41;;;;;;;12.02;2.97;;;;;;;19.26;71.90;98445.78;5093360;28;20461;-44
2023/04/29 00:53:08;;;;;;;17.05;3.95;;;;;;;19.42;70.74;98446.59;5093634;28;20119;-44
2023/04/29 00:55:34;;;;;;;7.85;3.13;;;;;;;19.43;70.91;98434.91;5093909;28;20032;-44
2023/04/29 00:58:03;;;;;;;12.88;2.53;;;;;;;19.46;70.79;98437.06;5094596;28;20493;-44
2023/04/29 01:00:29;;;;;;;12.93;3.22;;;;;;;19.44;71.35;98437.31;5094448;28;20111;-44
2023/04/29 01:02:56;;;;;;;16.42;3.97;;;;;;;19.41;71.39;98434.38;5093166;28;20032;-44
2023/04/29 01:05:23;;;;;;;10.48;3.13;;;;;;;19.40;71.43;98443.41;5093343;28;20481;-44
2023/04/29 01:08:05;;;;;;;11.40;2.67;;;;;;;19.26;72.78;98427.97;5094345;28;20097;-44
2023/04/29 01:10:43;;;;;;;7.55;2.28;;;;;;;19.36;72.47;98422.66;5094373;28;20038;-45
2023/04/29 01:13:15;;;;;;;8.90;2.65;;;;;;;19.46;68.79;98421.09;5093335;28;20032;-44
2023/04/29 01:16:03;;;;;;;17.88;3.38;;;;;;;19.52;71.23;98417.34;5094303;28;20031;-45
2023/04/29 01:18:38;;;;;;;12.77;2.95;;;;;;;19.70;70.46;98408.84;5094453;28;20031;-44
2023/04/29 01:21:04;;;;;;;11.68;2.95;;;;;;;19.83;69.05;98412.06;5092808;28;20507;-44
2023/04/29 01:23:29;;;;;;;11.57;3.28;;;;;;;19.60;68.51;98413.34;5094377;28;20059;-44
2023/04/29 01:25:57;;;;;;;19.10;3.00;;;;;;;19.32;68.80;98405.63;5094711;28;20595;-44
2023/04/29 01:29:23;;;;;;;10.40;2.60;;;;;;;19.16;70.24;98404.00;5089456;28;20584;-44
2023/04/29 01:32:03;;;;;;;13.20;3.97;;;;;;;19.10;71.82;98405.84;5027987;28;20049;-44
2023/04/29 01:34:48;;;;;;;13.07;4.50;;;;;;;19.26;72.81;98409.34;5031523;28;20029;-44
2023/04/29 01:37:42;;;;;;;11.77;3.72;;;;;;;19.51;72.79;98410.41;5031373;28;20033;-44
2023/04/29 01:40:40;;;;;;;10.43;4.18;;;;;;;19.64;69.65;98419.72;5031438;28;20092;-44
2023/04/29 01:43:10;;;;;;;25.67;11.57;;;;;;;19.84;69.35;98418.97;4991812;28;20042;-44
2023/04/29 01:45:40;;;;;;;19.27;10.65;;;;;;;20.13;67.48;98417.34;4991985;28;20038;-44
2023/04/29 01:48:07;;;;;;;15.18;6.22;;;;;;;20.33;65.68;98413.84;4975364;28;20071;-44
2023/04/29 01:50:33;;;;;;;30.98;11.27;;;;;;;20.54;64.74;98416.44;4991788;28;20030;-44
2023/04/29 01:52:59;;;;;;;18.75;7.95;;;;;;;20.70;63.59;98419.88;4991749;28;20039;-44
2023/04/29 01:55:25;;;;;;;5.35;1.73;;;;;;;20.69;61.43;98416.41;4991525;28;20041;-44
2023/04/29 01:57:50;;;;;;;13.05;4.80;;;;;;;20.24;64.77;98419.97;4991685;28;20034;-44
2023/04/29 02:00:16;;;;;;;10.55;2.53;;;;;;;19.72;68.04;98427.25;4975288;28;20042;-45
2023/04/29 02:02:42;;;;;;;17.88;3.50;;;;;;;19.28;70.60;98460.44;5036945;28;20127;-44
2023/04/29 02:05:08;;;;;;;8.77;3.17;;;;;;;19.15;74.97;98482.19;5053981;28;20119;-44
2023/04/29 02:07:34;;;;;;;11.80;3.42;;;;;;;19.08;78.46;98498.41;5069615;28;20098;-44
2023/04/29 02:10:00;;;;;;;10.95;3.90;;;;;;;19.09;81.58;98509.84;5070718;28;20028;-44
2023/04/29 02:12:26;;;;;;;16.48;7.53;;;;;;;19.14;83.24;98536.47;5053899;28;20522;-44
2023/04/29 02:14:52;;;;;;;30.35;15.13;;;;;;;19.07;84.79;98538.56;5070570;28;20040;-44
2023/04/29 02:17:18;;;;;;;26.30;16.27;;;;;;;18.77;86.05;98537.31;5070600;28;20033;-44
2023/04/29 02:19:44;;;;;;;26.70;16.23;;;;;;;18.31;87.89;98537.00;5075600;28;20039;-44
2023/04/29 02:22:11;;;;;;;27.90;10.00;;;;;;;17.96;90.33;98538.31;5092890;28;20060;-44
2023/04/29 02:24:37;;;;;;;19.05;7.00;;;;;;;17.91;93.24;98539.09;5091918;28;20114;-44
2023/04/29 02:27:04;;;;;;;19.50;5.88;;;;;;;17.86;94.53;98536.38;5091301;28;20047;-44
2023/04/29 02:29:31;;;;;;;13.70;5.35;;;;;;;17.84;96.15;98535.81;5091849;28;20019;-44
2023/04/29 02:31:57;;;;;;;9.73;4.53;;;;;;;17.73;96.90;98542.06;5092732;28;20021;-44
2023/04/29 02:34:23;;;;;;;21.90;5.32;;;;;;;17.61;98.14;98555.47;5092767;28;20453;-43
2023/04/29 02:36:49;;;;;;;12.55;3.72;;;;;;;17.50;99.00;98565.16;5091376;28;20107;-44
2023/04/29 02:39:15;;;;;;;19.42;5.18;;;;;;;17.32;99.04;98574.22;5092670;28;20729;-44
2023/04/29 02:41:41;;;;;;;7.38;3.88;;;;;;;17.09;98.68;98574.50;5092587;28;20047;-46
2023/04/29 02:44:07;;;;;;;27.02;9.95;;;;;;;16.87;99.20;98601.75;5091229;28;20059;-46
2023/04/29 02:46:34;;;;;;;29.25;6.40;;;;;;;17.04;100.00;98601.72;5092462;28;20024;-46
2023/04/29 02:49:00;;;;;;;17.40;6.57;;;;;;;17.26;100.00;98598.28;5091256;28;20107;-48
2023/04/29 02:51:27;;;;;;;25.80;6.15;;;;;;;17.36;100.00;98601.06;5092432;28;20020;-48
2023/04/29 02:53:54;;;;;;;32.63;9.15;;;;;;;17.33;100.00;98606.88;5091081;28;20016;-47
2023/04/29 02:56:20;;;;;;;12.45;5.28;;;;;;;17.30;100.00;98605.50;5091302;28;20067;-46
2023/04/29 02:58:46;;;;;;;15.32;4.32;;;;;;;17.23;100.00;98610.22;5092357;28;20023;-46
2023/04/29 03:01:11;;;;;;;22.00;5.28;;;;;;;17.08;100.00;98607.34;5090983;28;20405;-46
2023/04/29 03:03:38;;;;;;;18.10;4.78;;;;;;;17.05;100.00;98607.84;5090965;28;20567;-46
2023/04/29 03:06:03;;;;;;;12.77;4.03;;;;;;;16.96;100.00;98602.97;5092252;28;20020;-46
2023/04/29 03:08:29;;;;;;;15.60;4.28;;;;;;;16.82;100.00;98600.88;5092093;28;20447;-46
2023/04/29 03:10:55;;;;;;;14.52;5.45;;;;;;;16.64;100.00;98593.94;5092138;28;20020;-46
2023/04/29 03:13:21;;;;;;;11.45;4.20;;;;;;;16.59;100.00;98597.34;5090839;28;20055;-48
2023/04/29 03:15:46;;;;;;;14.85;4.47;;;;;;;16.46;100.00;98568.50;5092151;28;20024;-48
2023/04/29 03:18:12;;;;;;;12.30;4.45;;;;;;;16.44;100.00;98554.69;5090429;28;20035;-48
2023/04/29 03:20:38;;;;;;;16.50;5.38;;;;;;;16.48;100.00;98545.22;5090710;28;20024;-48
2023/04/29 03:23:04;;;;;;;17.30;5.03;;;;;;;16.50;100.00;98533.38;5090680;28;20032;-48
2023/04/29 03:25:30;;;;;;;16.58;5.20;;;;;;;16.57;100.00;98515.44;5090678;28;20120;-49
2023/04/29 03:27:57;;;;;;;16.77;4.35;;;;;;;16.58;100.00;98500.38;5090387;28;20109;-49
2023/04/29 03:30:23;;;;;;;10.93;4.97;;;;;;;16.49;100.00;98499.16;5091918;28;20028;-48
2023/04/29 03:32:49;;;;;;;16.48;5.15;;;;;;;16.47;100.00;98507.34;5090615;28;20612;-48
2023/04/29 03:35:14;;;;;;;11.82;4.70;;;;;;;16.46;100.00;98511.06;5091822;28;20058;-49
2023/04/29 03:37:43;;;;;;;16.05;5.68;;;;;;;16.35;100.00;98518.03;5090529;28;20028;-48
2023/04/29 03:40:09;;;;;;;12.25;3.55;;;;;;;16.20;100.00;98519.63;5091737;28;20024;-48
2023/04/29 03:42:35;;;;;;;9.05;3.13;;;;;;;16.15;100.00;98518.50;5091916;28;20573;-48
2023/04/29 03:45:01;;;;;;;12.88;3.70;;;;;;;16.08;100.00;98514.44;5090463;28;20111;-48
2023/04/29 03:47:27;;;;;;;8.55;3.00;;;;;;;15.81;100.00;98527.47;5091763;28;20028;-48
2023/04/29 03:49:53;;;;;;;19.75;4.40;;;;;;;15.59;100.00;98528.09;5090488;28;20028;-48
2023/04/29 03:52:18;;;;;;;8.13;3.95;;;;;;;15.80;100.00;98528.53;5090456;28;20482;-48
2023/04/29 03:54:44;;;;;;;16.42;4.10;;;;;;;15.99;100.00;98524.59;5091716;28;20024;-48
2023/04/29 03:57:13;;;;;;;12.40;3.90;;;;;;;16.02;100.00;98526.78;5091746;28;20406;-48
2023/04/29 03:59:39;;;;;;;20.35;3.92;;;;;;;15.84;100.00;98511.94;5090378;28;20024;-48
2023/04/29 04:02:04;;;;;;;11.05;2.95;;;;;;;15.88;100.00;98533.44;5091512;28;20016;-48
2023/04/29 04:04:30;;;;;;;19.10;3.85;;;;;;;15.73;100.00;98533.94;5091661;28;20023;-48
2023/04/29 04:06:56;;;;;;;8.88;2.85;;;;;;;15.81;100.00;98538.06;5073291;28;20440;-47
2023/04/29 04:09:22;;;;;;;6.18;2.38;;;;;;;16.04;100.00;98531.84;5091518;28;20016;-48
2023/04/29 04:11:48;;;;;;;13.65;3.10;;;;;;;16.20;100.00;98517.81;5091548;28;20035;-48
2023/04/29 04:14:13;;;;;;;13.68;3.58;;;;;;;16.12;100.00;98519.00;5090200;28;20370;-48
2023/04/29 04:16:39;;;;;;;8.50;3.13;;;;;;;16.03;100.00;98520.44;5090158;28;20383;-48
2023/04/29 04:19:05;;;;;;;10.20;3.50;;;;;;;16.16;100.00;98520.13;5090201;28;20451;-48
2023/04/29 04:21:30;;;;;;;15.23;4.53;;;;;;;16.36;100.00;98508.25;5091472;28;20089;-48
2023/04/29 04:23:56;;;;;;;10.25;3.40;;;;;;;16.57;100.00;98509.34;5090377;28;20031;-48
2023/04/29 04:26:22;;;;;;;11.43;3.47;;;;;;;16.84;100.00;98509.50;5089982;28;20024;-49
2023/04/29 04:28:48;;;;;;;13.15;3.88;;;;;;;17.02;100.00;98516.31;5091249;28;20051;-48
2023/04/29 04:31:13;;;;;;;8.38;3.22;;;;;;;16.91;99.55;98512.75;5094667;28;20036;-49
2023/04/29 04:33:40;;;;;;;12.80;2.85;;;;;;;17.01;100.00;98513.94;5095145;28;20392;-48
2023/04/29 04:36:06;;;;;;;13.40;3.22;;;;;;;17.09;100.00;98519.59;5093719;28;20024;-49
2023/04/29 04:38:32;;;;;;;36.78;4.43;;;;;;;17.07;99.86;98521.69;5094944;28;20111;-49
2023/04/29 04:40:58;;;;;;;14.23;3.25;;;;;;;17.24;100.00;98526.94;5095209;28;20126;-49
2023/04/29 04:43:24;;;;;;;9.85;2.78;;;;;;;17.20;99.61;98535.63;5093739;28;20035;-48
2023/04/29 04:45:50;;;;;;;13.38;3.00;;;;;;;16.99;99.56;98542.53;5094816;28;20062;-49
2023/04/29 04:48:16;;;;;;;5.75;2.45;;;;;;;16.96;99.25;98547.28;5094693;28;20031;-48
2023/04/29 04:50:42;;;;;;;12.63;2.40;;;;;;;16.98;99.30;98549.66;5093511;28;20024;-48
2023/04/29 04:53:07;;;;;;;14.40;2.90;;;;;;;16.96;98.46;98560.53;5093391;28;20066;-48
2023/04/29 04:55:33;;;;;;;8.43;2.50;;;;;;;16.94;98.63;98562.63;5093403;28;20028;-48
2023/04/29 04:57:59;;;;;;;10.63;3.42;;;;;;;16.90;98.41;98566.00;5093402;28;20032;-48
2023/04/29 05:00:25;;;;;;;3.85;2.95;;;;;;;16.86;98.64;98563.06;5094567;28;20085;-48
2023/04/29 05:02:51;;;;;;;22.77;3.35;;;;;;;16.82;99.10;98566.41;5093302;28;20035;-48
2023/04/29 05:05:17;;;;;;;9.88;3.22;;;;;;;16.90;100.00;98566.00;5094393;28;20024;-48
2023/04/29 05:07:43;;;;;;;18.23;3.85;;;;;;;17.03;100.00;98567.50;5093048;28;20028;-48
2023/04/29 05:10:09;;;;;;;13.43;3.60;;;;;;;17.07;100.00;98566.78;5093198;28;20035;-48
2023/04/29 05:12:35;;;;;;;20.23;4.38;;;;;;;17.13;100.00;98567.66;5094357;28;20020;-48
2023/04/29 05:15:01;;;;;;;9.63;3.15;;;;;;;17.08;99.98;98567.56;5093034;28;20039;-48
2023/04/29 05:17:27;;;;;;;9.98;2.92;;;;;;;16.94;98.92;98557.34;5094295;28;20032;-48
2023/04/29 05:19:53;;;;;;;6.70;2.88;;;;;;;16.90;98.86;98550.91;5094239;28;20435;-48
2023/04/29 05:22:19;;;;;;;13.20;3.28;;;;;;;16.75;98.49;98551.47;5092810;28;20106;-48
2023/04/29 05:24:47;;;;;;;7.00;2.83;;;;;;;16.57;99.03;98541.94;5094205;28;20501;-49
2023/04/29 05:27:13;;;;;;;18.73;4.65;;;;;;;16.34;99.58;98548.22;5092383;28;20131;-49
2023/04/29 05:29:38;;;;;;;9.38;2.90;;;;;;;16.19;100.00;98550.63;5076008;28;20548;-49
2023/04/29 05:32:05;;;;;;;6.63;3.03;;;;;;;16.15;100.00;98562.72;5093973;28;20095;-48
2023/04/29 05:34:30;;;;;;;8.05;3.22;;;;;;;16.24;100.00;98557.81;5092820;28;20043;-48
2023/04/29 05:36:56;;;;;;;11.85;3.65;;;;;;;16.33;100.00;98561.69;5093909;28;20060;-48
2023/04/29 05:39:22;;;;;;;10.45;3.88;;;;;;;16.28;100.00;98557.13;5093876;28;20496;-48
2023/04/29 05:41:47;;;;;;;9.85;3.35;;;;;;;16.18;100.00;98560.41;5092429;28;20024;-48
2023/04/29 05:44:13;;;;;;;9.80;3.70;;;;;;;16.11;100.00;98562.41;5075617;28;20067;-48
2023/04/29 05:46:39;;;;;;;15.45;3.88;;;;;;;16.16;100.00;98557.19;5092267;28;20387;-49
2023/04/29 05:49:05;;;;;;;16.30;3.95;;;;;;;16.23;100.00;98564.19;5093671;28;20027;-48
2023/04/29 05:51:31;;;;;;;11.48;3.25;;;;;;;16.27;100.00;98560.00;5093630;28;20086;-48
2023/04/29 05:53:58;;;;;;;16.27;3.33;;;;;;;16.34;100.00;98568.63;5092270;28;20024;-48
2023/04/29 05:56:24;;;;;;;11.13;3.10;;;;;;;16.53;100.00;98569.97;5093459;28;20084;-48
2023/04/29 05:58:50;;;;;;;11.68;3.08;;;;;;;16.57;100.00;98560.47;5092116;28;20024;-48
2023/04/29 06:01:16;;;;;;;11.52;2.83;;;;;;;16.65;100.00;98553.19;5093344;28;20032;-48
2023/04/29 06:03:42;;;;;;;15.65;3.80;;;;;;;16.74;100.00;98555.19;5092055;28;20397;-49
2023/04/29 06:06:08;;;;;;;11.30;3.08;;;;;;;16.90;100.00;98550.09;5075177;28;20063;-49
2023/04/29 06:08:34;;;;;;;15.13;4.25;;;;;;;16.97;99.59;98545.44;5091857;28;20561;-49
2023/04/29 06:11:04;;;;;;;9.45;3.05;;;;;;;17.06;100.00;98553.75;5093203;28;20122;-48
2023/04/29 06:13:31;;;;;;;11.82;3.17;;;;;;;17.28;100.00;98564.38;5093238;28;20398;-49
2023/04/29 06:15:57;;;;;;;7.07;3.15;;;;;;;17.43;100.00;98569.06;5091840;28;20038;-48
2023/04/29 06:18:22;;;;;;;9.23;2.63;;;;;;;17.33;100.00;98569.75;5093061;28;20032;-49
2023/04/29 06:20:48;;;;;;;13.48;3.25;;;;;;;17.36;100.00;98567.41;5093308;28;20530;-48
2023/04/29 06:23:14;;;;;;;9.68;2.70;;;;;;;17.52;100.00;98565.72;5093035;28;20378;-48
2023/04/29 06:25:40;;;;;;;13.05;3.10;;;;;;;17.66;100.00;98557.38;5092952;28;20482;-48
2023/04/29 06:28:07;;;;;;;12.45;3.50;;;;;;;17.78;100.00;98555.38;5091307;28;20059;-48
2023/04/29 06:30:33;;;;;;;8.73;3.33;;;;;;;17.95;100.00;98560.63;5093086;28;20028;-48
2023/04/29 06:32:59;;;;;;;7.72;3.40;;;;;;;18.05;100.00;98552.75;5091533;28;20131;-48
2023/04/29 06:35:25;;;;;;;11.75;3.78;;;;;;;18.17;100.00;98544.63;5092781;28;20453;-48
2023/04/29 06:37:51;;;;;;;19.20;7.13;;;;;;;18.21;99.78;98553.69;5074586;28;20032;-48
2023/04/29 06:40:17;;;;;;;16.27;12.32;;;;;;;18.30;99.20;98549.50;5092598;28;20543;-49
2023/04/29 06:42:43;;;;;;;6.25;5.43;;;;;;;18.46;98.92;98555.72;5092693;28;20020;-48
2023/04/29 06:45:09;;;;;;;13.30;3.75;;;;;;;18.58;98.28;98562.72;5092640;28;20016;-48
2023/04/29 06:47:35;;;;;;;13.63;3.17;;;;;;;18.60;95.47;98564.06;5092512;28;20390;-48
2023/04/29 06:50:00;;;;;;;17.30;3.28;;;;;;;18.65;95.78;98550.00;5092500;28;20027;-49
2023/04/29 06:52:26;;;;;;;12.60;3.65;;;;;;;18.59;92.91;98535.06;5090611;28;20028;-48
2023/04/29 06:54:52;;;;;;;10.73;3.25;;;;;;;18.57;91.19;98532.66;5092447;28;20050;-48
2023/04/29 06:57:18;;;;;;;14.95;3.70;;;;;;;18.71;89.59;98546.31;5092616;28;20046;-48
2023/04/29 06:59:43;;;;;;;7.45;2.60;;;;;;;18.95;91.14;98547.56;5092631;28;20028;-49
2023/04/29 07:02:10;;;;;;;7.05;2.75;;;;;;;19.22;91.00;98551.16;5092331;28;20020;-48
2023/04/29 07:04:36;;;;;;;7.93;2.78;;;;;;;19.44;92.35;98553.63;5092333;28;20024;-49
2023/04/29 07:07:02;;;;;;;4.63;2.60;;;;;;;19.92;93.66;98544.44;5092139;28;20020;-49
2023/04/29 07:09:28;;;;;;;9.95;3.28;;;;;;;21.26;93.13;98525.56;5090912;28;20074;-47
2023/04/29 07:11:54;;;;;;;12.13;2.58;;;;;;;22.37;86.43;98533.13;5092163;28;20032;-47
2023/04/29 07:14:21;;;;;;;8.88;2.92;;;;;;;23.04;83.63;98529.78;5090873;28;20023;-47
2023/04/29 07:16:47;;;;;;;6.03;2.72;;;;;;;23.30;80.52;98532.94;5092093;28;20024;-47
2023/04/29 07:19:13;;;;;;;13.65;3.45;;;;;;;23.46;77.30;98528.19;5092191;28;20051;-47
2023/04/29 07:21:38;;;;;;;6.88;2.40;;;;;;;24.07;75.68;98535.38;5090775;28;20505;-47
2023/04/29 07:24:04;;;;;;;8.50;2.58;;;;;;;25.78;70.02;98523.78;5090768;28;20559;-47
2023/04/29 07:26:30;;;;;;;7.28;2.10;;;;;;;27.18;65.26;98522.59;5091914;28;20016;-47
2023/04/29 07:28:56;;;;;;;8.57;2.22;;;;;;;27.99;63.13;98524.00;5091728;28;20520;-47
2023/04/29 07:31:21;;;;;;;10.27;2.78;;;;;;;28.55;60.99;98521.31;5091919;28;20032;-47
2023/04/29 07:33:47;;;;;;;13.48;2.35;;;;;;;27.82;60.23;98515.88;5091903;28;20509;-47
2023/04/29 07:36:13;;;;;;;10.00;2.47;;;;;;;26.50;62.39;98512.06;5090547;28;20383;-47
2023/04/29 07:38:39;;;;;;;8.30;2.42;;;;;;;25.71;67.34;98504.56;5091899;28;20039;-47
2023/04/29 07:41:05;;;;;;;11.25;3.13;;;;;;;25.15;66.79;98501.19;5090518;28;20028;-47
2023/04/29 07:43:30;;;;;;;7.80;2.28;;;;;;;24.48;64.36;98499.78;5091862;28;20394;-46
2023/04/29 07:45:56;;;;;;;4.95;2.40;;;;;;;23.60;67.93;98501.47;5091785;28;20493;-46
2023/04/29 07:48:22;;;;;;;9.68;3.22;;;;;;;23.09;70.75;98511.00;5091637;28;20451;-46
2023/04/29 07:50:48;;;;;;;7.65;2.22;;;;;;;22.88;73.08;98518.47;5092004;28;20118;-46
2023/04/29 07:53:14;;;;;;;9.98;3.70;;;;;;;22.87;73.39;98517.66;5073614;28;20028;-46
2023/04/29 07:55:40;;;;;;;7.97;3.00;;;;;;;23.00;73.86;98515.34;5091650;28;20063;-46
2023/04/29 07:58:06;;;;;;;7.53;2.28;;;;;;;23.33;74.35;98530.50;5091722;28;20060;-46
2023/04/29 08:00:33;;;;;;;4.65;1.80;;;;;;;23.69;71.27;98521.97;5091586;28;20035;-46
2023/04/29 08:02:59;;;;;;;8.85;2.00;;;;;;;24.02;71.01;98522.03;5091633;28;20024;-46
2023/04/29 08:05:25;;;;;;;6.75;1.80;;;;;;;24.30;70.33;98541.69;5095462;28;20026;-46
2023/04/29 08:07:51;;;;;;;3.33;1.75;;;;;;;24.65;69.68;98544.06;5094228;28;20074;-46
2023/04/29 08:10:18;;;;;;;7.93;1.73;;;;;;;24.98;68.64;98535.94;5094281;28;20511;-46
2023/04/29 08:12:50;;;;;;;4.90;2.10;;;;;;;25.52;65.52;98537.78;5094247;28;20074;-46
2023/04/29 08:15:17;;;;;;;10.95;2.55;;;;;;;25.92;64.15;98537.22;5094097;28;20455;-46
2023/04/29 08:17:43;;;;;;;11.02;2.33;;;;;;;25.61;63.27;98537.84;5095436;28;20077;-46
2023/04/29 08:20:09;;;;;;;8.60;4.78;;;;;;;25.77;61.92;98545.59;5095317;28;20071;-46
2023/04/29 08:22:35;;;;;;;9.32;3.20;;;;;;;26.10;59.46;98541.59;5095275;28;20060;-46
2023/04/29 08:25:04;;;;;;;12.50;3.10;;;;;;;26.95;57.83;98537.31;5093983;28;20056;-46
2023/04/29 08:27:30;;;;;;;4.85;2.90;;;;;;;27.47;53.27;98526.66;5095004;28;20042;-46
2023/04/29 08:29:55;;;;;;;8.38;3.00;;;;;;;27.50;51.34;98524.09;5095158;28;20063;-46
2023/04/29 08:32:21;;;;;;;6.90;2.33;;;;;;;27.15;51.41;98535.94;5095048;28;20035;-46
2023/04/29 08:34:47;;;;;;;10.75;2.63;;;;;;;26.95;51.45;98537.31;5095075;28;20497;-46
2023/04/29 08:37:14;;;;;;;8.55;2.08;;;;;;;26.84;50.96;98539.47;5093713;28;20031;-45
2023/04/29 08:39:42;;;;;;;9.25;2.30;;;;;;;26.82;50.35;98550.56;5095007;28;20023;-46
2023/04/29 08:42:11;;;;;;;4.60;2.13;;;;;;;26.64;49.82;98544.31;5094940;28;20020;-46
2023/04/29 08:44:38;;;;;;;4.18;1.80;;;;;;;26.35;50.54;98546.66;5094944;28;20020;-46
2023/04/29 08:47:05;;;;;;;6.05;1.40;;;;;;;26.00;48.52;98544.53;5094721;28;20024;-46
2023/04/29 08:49:32;;;;;;;10.38;1.92;;;;;;;25.95;49.94;98552.72;5093529;28;20032;-46
2023/04/29 08:51:58;;;;;;;7.43;1.83;;;;;;;26.08;49.97;98551.09;5094787;28;20020;-46
2023/04/29 08:54:24;;;;;;;4.25;1.40;;;;;;;26.29;49.95;98548.69;5076674;28;20417;-46
2023/04/29 08:56:50;;;;;;;4.95;1.73;;;;;;;26.21;48.49;98544.81;5093455;28;20036;-46
2023/04/29 08:59:17;;;;;;;9.45;4.10;;;;;;;26.03;48.41;98546.59;5093328;28;20397;-46
2023/04/29 09:01:49;;;;;;;11.73;4.60;;;;;;;25.87;48.79;98556.09;5094569;28;20036;-46
2023/04/29 09:04:43;;;;;;;13.07;2.30;;;;;;;25.22;50.55;98558.03;5094524;28;20032;-46
2023/04/29 09:07:11;;;;;;;12.32;3.38;;;;;;;24.99;51.02;98565.19;5094469;28;20056;-47
2023/04/29 09:09:39;;;;;;;3.90;1.67;;;;;;;24.88;51.59;98574.53;5093184;28;20024;-47
2023/04/29 09:12:05;;;;;;;16.77;2.78;;;;;;;24.91;51.48;98581.97;5094365;28;20028;-47
2023/04/29 09:14:35;;;;;;;7.63;1.38;;;;;;;24.89;52.06;98582.28;5093040;28;20081;-47
2023/04/29 09:17:01;;;;;;;5.15;1.23;;;;;;;25.09;50.89;98583.78;5092493;28;20020;-47
2023/04/29 09:19:35;;;;;;;10.18;1.98;;;;;;;25.29;49.92;98585.31;5094263;28;20024;-47
2023/04/29 09:22:02;;;;;;;6.43;1.43;;;;;;;25.54;49.85;98587.75;5092967;28;20039;-47
2023/04/29 09:24:30;;;;;;;4.85;1.23;;;;;;;25.73;48.38;98590.31;5076089;28;20391;-46
2023/04/29 09:26:57;;;;;;;8.85;6.63;;;;;;;25.69;48.14;98595.47;5093780;28;20040;-48
2023/04/29 09:29:23;;;;;;;26.70;22.25;;;;;;;25.42;48.54;98596.34;5094090;28;20416;-46
2023/04/29 09:31:52;;;;;;;9.85;6.15;;;;;;;25.37;49.21;98596.44;5092688;28;20112;-46
2023/04/29 09:34:39;;;;;;;7.72;3.35;;;;;;;25.50;48.27;98598.31;5093912;28;20069;-47
2023/04/29 09:37:24;;;;;;;11.80;2.08;;;;;;;25.62;48.23;98609.34;5093967;28;20028;-47
2023/04/29 09:39:50;;;;;;;;;;;;;;;25.63;49.06;98621.66;5094378;28;20069;-47
2023/04/29 09:42:16;;;;;;;5.90;1.40;;;;;;;25.46;48.36;98616.13;5093793;28;20331;-47
2023/04/29 09:44:44;;;;;;;5.25;2.00;;;;;;;24.99;48.56;98621.56;5093751;28;20483;-47
2023/04/29 09:47:10;;;;;;;6.88;1.80;;;;;;;25.03;49.19;98619.06;5093526;28;20097;-47
2023/04/29 09:49:39;;;;;;;9.75;1.65;;;;;;;25.04;49.07;98615.31;5092363;28;20023;-47
2023/04/29 09:52:08;;;;;;;8.55;1.60;;;;;;;25.02;49.40;98614.81;5093522;28;20016;-47
2023/04/29 09:54:35;;;;;;;7.88;1.45;;;;;;;24.78;49.87;98615.75;5092303;28;20034;-47
2023/04/29 09:57:06;;;;;;;7.68;3.13;;;;;;;24.55;50.55;98616.69;5093543;28;20099;-47
2023/04/29 09:59:36;;;;;;;8.02;1.75;;;;;;;24.49;50.86;98616.75;5093560;28;20075;-47
2023/04/29 10:02:14;;;;;;;7.88;1.90;;;;;;;24.54;50.94;98620.47;5093505;28;20040;-47
2023/04/29 10:04:43;;;;;;;16.75;2.28;;;;;;;24.45;51.23;98607.72;5093421;28;20110;-47
2023/04/29 10:07:14;;;;;;;3.97;1.70;;;;;;;24.51;51.58;98608.47;5091900;28;20443;-47
2023/04/29 10:09:40;;;;;;;7.28;1.80;;;;;;;24.50;51.44;98613.00;5093295;28;20355;-47
2023/04/29 10:12:07;;;;;;;4.97;1.95;;;;;;;24.54;50.91;98615.13;5091899;28;20077;-47
2023/04/29 10:14:44;;;;;;;14.43;2.47;;;;;;;24.56;51.51;98604.88;5093215;28;20447;-47
2023/04/29 10:17:23;;;;;;;9.10;2.35;;;;;;;24.35;51.96;98605.19;5093093;28;20105;-46
2023/04/29 10:20:07;;;;;;;4.43;1.33;;;;;;;24.35;52.45;98601.69;5093099;28;20071;-47
2023/04/29 10:22:35;;;;;;;4.65;1.98;;;;;;;24.42;53.03;98599.44;5093084;28;20040;-47
2023/04/29 10:25:02;;;;;;;10.02;2.40;;;;;;;24.64;53.02;98602.31;5092984;28;20050;-46
2023/04/29 10:27:29;;;;;;;17.48;2.75;;;;;;;24.78;52.46;98598.88;5091652;28;20052;-47
2023/04/29 10:29:57;;;;;;;3.13;1.60;;;;;;;24.78;52.25;98602.34;5091705;28;20021;-47
2023/04/29 10:32:26;;;;;;;6.50;1.83;;;;;;;24.59;52.39;98606.97;5092886;28;20371;-47
2023/04/29 10:34:54;;;;;;;10.70;2.13;;;;;;;24.42;52.94;98612.84;5093110;28;20363;-47
2023/04/29 10:37:21;;;;;;;14.35;2.45;;;;;;;24.38;52.81;98615.31;5092706;28;20036;-47
2023/04/29 10:40:17;;;;;;;10.43;2.70;;;;;;;24.27;52.23;98616.59;5092754;28;20104;-47
2023/04/29 10:42:46;;;;;;;18.27;2.55;;;;;;;24.20;52.24;98608.09;5091391;28;20450;-47
2023/04/29 10:45:28;;;;;;;8.38;2.08;;;;;;;24.11;52.17;98608.78;5092573;28;20035;-47
2023/04/29 10:48:09;;;;;;;12.27;4.03;;;;;;;24.29;51.72;98609.84;5091573;28;20048;-47
2023/04/29 10:50:47;;;;;;;6.55;2.08;;;;;;;24.60;50.90;98605.88;5092556;28;20508;-47
2023/04/29 10:53:19;;;;;;;6.35;1.80;;;;;;;24.33;51.15;98608.16;5091189;28;20024;-47
2023/04/29 10:55:56;;;;;;;8.85;2.10;;;;;;;24.13;52.13;98600.44;5091217;28;20032;-47
2023/04/29 10:58:43;;;;;;;8.60;2.20;;;;;;;23.99;52.47;98602.28;5091187;28;20103;-47
2023/04/29 11:01:11;;;;;;;7.85;2.15;;;;;;;24.07;52.60;98596.25;5092336;28;20074;-47
2023/04/29 11:03:59;;;;;;;9.85;2.03;;;;;;;24.17;52.18;98595.31;5092324;28;20028;-47
2023/04/29 11:06:41;;;;;;;3.40;1.70;;;;;;;24.32;51.85;98597.72;5092286;28;20031;-47
2023/04/29 11:09:17;;;;;;;10.93;2.20;;;;;;;24.28;52.13;98597.50;5092231;28;20517;-47
2023/04/29 11:11:45;;;;;;;12.30;2.50;;;;;;;24.68;51.75;98595.25;5092266;28;20028;-47
2023/04/29 11:14:14;;;;;;;7.82;2.28;;;;;;;25.24;50.26;98587.28;5092210;28;20028;-47
2023/04/29 11:16:56;;;;;;;7.85;2.25;;;;;;;25.67;49.52;98586.94;5090810;28;20031;-47
2023/04/29 11:19:24;;;;;;;7.35;1.75;;;;;;;26.04;48.03;98583.16;5074070;28;20028;-47
2023/04/29 11:22:13;;;;;;;5.68;1.48;;;;;;;25.88;47.15;98595.34;5092019;28;20153;-47
2023/04/29 11:24:49;;;;;;;5.13;2.10;;;;;;;26.10;47.13;98584.63;5092054;28;20034;-47
2023/04/29 11:27:16;;;;;;;8.68;1.73;;;;;;;26.38;46.23;98568.38;5091617;28;20036;-47
2023/04/29 11:29:44;;;;;;;7.05;1.80;;;;;;;27.03;44.82;98574.25;5090681;28;20049;-47
2023/04/29 11:32:09;;;;;;;17.10;2.30;;;;;;;27.44;44.21;98576.59;5090564;28;20136;-47